Time;durP1;ratioP1;P1;durP2;ratioP2;P2;SDS_P1;SDS_P2;PMS_P1;PMS_P2;Temp;Humidity;BMP_temperature;BMP_pressure;BME280_temperature;BME280_humidity;BME280_pressure;Samples;Min_cycle;Max_cycle;Signal;HPM_P1;HPM_P2
2022/05/10 00:00:32;;;;;;;19.15;17.15;;;;;;;9.9;76.77734;95920.29;;;;
2022/05/10 00:01:33;;;;;;;19.15;17.15;;;;;;;9.9;76.77734;95920.29;;;;
2022/05/10 00:02:36;;;;;;;19.15;17.15;;;;;;;9.9;76.77734;95920.29;;;;
2022/05/10 00:03:37;;;;;;;19.15;17.15;;;;;;;9.9;76.77734;95920.29;;;;
2022/05/10 00:04:38;;;;;;;19.15;17.15;;;;;;;9.9;76.77734;95920.29;;;;
2022/05/10 00:05:40;;;;;;;19.15;17.15;;;;;;;9.9;76.77734;95920.29;;;;
2022/05/10 00:06:42;;;;;;;19.15;17.15;;;;;;;9.9;76.77734;95920.29;;;;
2022/05/10 00:07:46;;;;;;;19.15;17.15;;;;;;;9.9;76.77734;95920.29;;;;
2022/05/10 00:08:46;;;;;;;19.4;17.25;;;;;;;9.82;77.02148;95908.06;;;;
2022/05/10 00:09:47;;;;;;;19.4;17.25;;;;;;;9.82;77.02148;95908.06;;;;
2022/05/10 00:10:48;;;;;;;19.4;17.25;;;;;;;9.82;77.02148;95908.06;;;;
2022/05/10 00:11:48;;;;;;;19.4;17.25;;;;;;;9.82;77.02148;95908.06;;;;
2022/05/10 00:12:49;;;;;;;19.4;17.25;;;;;;;9.82;77.02148;95908.06;;;;
2022/05/10 00:13:50;;;;;;;19.4;17.25;;;;;;;9.82;77.02148;95908.06;;;;
2022/05/10 00:14:51;;;;;;;19.4;17.25;;;;;;;9.82;77.02148;95908.06;;;;
2022/05/10 00:15:51;;;;;;;19.4;17.25;;;;;;;9.82;77.02148;95908.06;;;;
2022/05/10 00:16:52;;;;;;;19.4;17.25;;;;;;;9.82;77.02148;95908.06;;;;
2022/05/10 00:17:53;;;;;;;19.4;17.25;;;;;;;9.82;77.02148;95908.06;;;;
2022/05/10 00:18:54;;;;;;;19.4;17.25;;;;;;;9.82;77.02148;95908.06;;;;
2022/05/10 00:19:55;;;;;;;20.3;17.9;;;;;;;9.75;77.1709;95902.31;;;;
2022/05/10 00:20:55;;;;;;;20.3;17.9;;;;;;;9.75;77.1709;95902.31;;;;
2022/05/10 00:21:57;;;;;;;20.3;17.9;;;;;;;9.75;77.1709;95902.31;;;;
2022/05/10 00:22:59;;;;;;;20.3;17.9;;;;;;;9.75;77.1709;95902.31;;;;
2022/05/10 00:23:59;;;;;;;20.3;17.9;;;;;;;9.75;77.1709;95902.31;;;;
2022/05/10 00:25:00;;;;;;;20.3;17.9;;;;;;;9.75;77.1709;95902.31;;;;
2022/05/10 00:26:00;;;;;;;20.3;17.9;;;;;;;9.75;77.1709;95902.31;;;;
2022/05/10 00:27:01;;;;;;;20.3;17.9;;;;;;;9.75;77.1709;95902.31;;;;
2022/05/10 00:28:02;;;;;;;20.3;17.9;;;;;;;9.75;77.1709;95902.31;;;;
2022/05/10 00:29:03;;;;;;;20.3;17.9;;;;;;;9.75;77.1709;95902.31;;;;
2022/05/10 00:30:04;;;;;;;21.5;18.75;;;;;;;9.62;77.35156;95890.83;;;;
2022/05/10 00:31:06;;;;;;;21.5;18.75;;;;;;;9.62;77.35156;95890.83;;;;
2022/05/10 00:32:09;;;;;;;21.5;18.75;;;;;;;9.62;77.35156;95890.83;;;;
2022/05/10 00:33:10;;;;;;;21.5;18.75;;;;;;;9.62;77.35156;95890.83;;;;
2022/05/10 00:34:23;;;;;;;21.5;18.75;;;;;;;9.62;77.35156;95890.83;;;;
2022/05/10 00:35:28;;;;;;;21.5;18.75;;;;;;;9.62;77.35156;95890.83;;;;
2022/05/10 00:36:31;;;;;;;21.5;18.75;;;;;;;9.62;77.35156;95890.83;;;;
2022/05/10 00:37:32;;;;;;;21.5;18.75;;;;;;;9.62;77.35156;95890.83;;;;
2022/05/10 00:38:32;;;;;;;21.5;18.75;;;;;;;9.62;77.35156;95890.83;;;;
2022/05/10 00:39:37;;;;;;;21.5;18.75;;;;;;;9.62;77.35156;95890.83;;;;
2022/05/10 00:40:37;;;;;;;19.6;17.5;;;;;;;9.47;77.57129;95874.66;;;;
2022/05/10 00:41:38;;;;;;;19.6;17.5;;;;;;;9.47;77.57129;95874.66;;;;
2022/05/10 00:42:56;;;;;;;19.6;17.5;;;;;;;9.47;77.57129;95874.66;;;;
2022/05/10 00:44:02;;;;;;;19.6;17.5;;;;;;;9.47;77.57129;95874.66;;;;
2022/05/10 00:45:09;;;;;;;19.6;17.5;;;;;;;9.47;77.57129;95874.66;;;;
2022/05/10 00:46:14;;;;;;;19.6;17.5;;;;;;;9.47;77.57129;95874.66;;;;
2022/05/10 00:47:22;;;;;;;19.6;17.5;;;;;;;9.47;77.57129;95874.66;;;;
2022/05/10 00:48:29;;;;;;;19.6;17.5;;;;;;;9.47;77.57129;95874.66;;;;
2022/05/10 00:49:37;;;;;;;19.6;17.5;;;;;;;9.47;77.57129;95874.66;;;;
2022/05/10 00:50:53;;;;;;;19.6;17.5;;;;;;;9.47;77.57129;95874.66;;;;
2022/05/10 00:52:01;;;;;;;20.15;18.05;;;;;;;9.37;77.77832;95863.11;;;;
2022/05/10 00:53:07;;;;;;;20.15;18.05;;;;;;;9.37;77.77832;95863.11;;;;
2022/05/10 00:54:13;;;;;;;20.15;18.05;;;;;;;9.37;77.77832;95863.11;;;;
2022/05/10 00:55:25;;;;;;;20.15;18.05;;;;;;;9.37;77.77832;95863.11;;;;
2022/05/10 00:56:32;;;;;;;20.15;18.05;;;;;;;9.37;77.77832;95863.11;;;;
2022/05/10 00:57:41;;;;;;;20.15;18.05;;;;;;;9.37;77.77832;95863.11;;;;
2022/05/10 00:58:46;;;;;;;20.15;18.05;;;;;;;9.37;77.77832;95863.11;;;;
2022/05/10 00:59:53;;;;;;;20.15;18.05;;;;;;;9.37;77.77832;95863.11;;;;
2022/05/10 01:01:00;;;;;;;20.15;18.05;;;;;;;9.37;77.77832;95863.11;;;;
2022/05/10 01:02:03;;;;;;;19.55;17.5;;;;;;;9.36;77.88574;95867.68;;;;
2022/05/10 01:03:07;;;;;;;19.55;17.5;;;;;;;9.36;77.88574;95867.68;;;;
2022/05/10 01:04:15;;;;;;;19.55;17.5;;;;;;;9.36;77.88574;95867.68;;;;
2022/05/10 01:05:23;;;;;;;19.55;17.5;;;;;;;9.36;77.88574;95867.68;;;;
2022/05/10 01:06:30;;;;;;;19.55;17.5;;;;;;;9.36;77.88574;95867.68;;;;
2022/05/10 01:07:37;;;;;;;19.55;17.5;;;;;;;9.36;77.88574;95867.68;;;;
2022/05/10 01:08:46;;;;;;;19.55;17.5;;;;;;;9.36;77.88574;95867.68;;;;
2022/05/10 01:09:55;;;;;;;19.55;17.5;;;;;;;9.36;77.88574;95867.68;;;;
2022/05/10 01:10:58;;;;;;;19.55;17.5;;;;;;;9.36;77.88574;95867.68;;;;
2022/05/10 01:12:05;;;;;;;19.55;17.5;;;;;;;9.36;77.88574;95867.68;;;;
2022/05/10 01:13:12;;;;;;;18.3;16.35;;;;;;;9.25;77.94922;95858.96;;;;
2022/05/10 01:14:19;;;;;;;18.3;16.35;;;;;;;9.25;77.94922;95858.96;;;;
2022/05/10 01:15:24;;;;;;;18.3;16.35;;;;;;;9.25;77.94922;95858.96;;;;
2022/05/10 01:16:25;;;;;;;18.3;16.35;;;;;;;9.25;77.94922;95858.96;;;;
2022/05/10 01:17:26;;;;;;;18.3;16.35;;;;;;;9.25;77.94922;95858.96;;;;
2022/05/10 01:18:27;;;;;;;18.3;16.35;;;;;;;9.25;77.94922;95858.96;;;;
2022/05/10 01:19:27;;;;;;;18.3;16.35;;;;;;;9.25;77.94922;95858.96;;;;
2022/05/10 01:20:28;;;;;;;18.3;16.35;;;;;;;9.25;77.94922;95858.96;;;;
2022/05/10 01:21:35;;;;;;;18.3;16.35;;;;;;;9.25;77.94922;95858.96;;;;
2022/05/10 01:22:49;;;;;;;18.3;16.35;;;;;;;9.25;77.94922;95858.96;;;;
2022/05/10 01:23:59;;;;;;;17.75;15.9;;;;;;;9.22;78.14941;95855.8;;;;
2022/05/10 01:25:25;;;;;;;17.75;15.9;;;;;;;9.22;78.14941;95855.8;;;;
2022/05/10 01:26:46;;;;;;;17.75;15.9;;;;;;;9.22;78.14941;95855.8;;;;
2022/05/10 01:28:00;;;;;;;17.75;15.9;;;;;;;9.22;78.14941;95855.8;;;;
2022/05/10 01:29:16;;;;;;;17.75;15.9;;;;;;;9.22;78.14941;95855.8;;;;
2022/05/10 01:30:23;;;;;;;17.75;15.9;;;;;;;9.22;78.14941;95855.8;;;;
2022/05/10 01:31:29;;;;;;;17.75;15.9;;;;;;;9.22;78.14941;95855.8;;;;
2022/05/10 01:33:37;;;;;;;17.75;15.9;;;;;;;9.22;78.14941;95855.8;;;;
2022/05/10 01:34:43;;;;;;;18.9;16.05;;;;;;;9.2;78.23047;95845.51;;;;
2022/05/10 01:35:49;;;;;;;18.9;16.05;;;;;;;9.2;78.23047;95845.51;;;;
2022/05/10 01:36:54;;;;;;;18.9;16.05;;;;;;;9.2;78.23047;95845.51;;;;
2022/05/10 01:37:59;;;;;;;18.9;16.05;;;;;;;9.2;78.23047;95845.51;;;;
2022/05/10 01:39:06;;;;;;;18.9;16.05;;;;;;;9.2;78.23047;95845.51;;;;
2022/05/10 01:40:13;;;;;;;18.9;16.05;;;;;;;9.2;78.23047;95845.51;;;;
2022/05/10 01:41:24;;;;;;;18.9;16.05;;;;;;;9.2;78.23047;95845.51;;;;
2022/05/10 01:42:33;;;;;;;18.9;16.05;;;;;;;9.2;78.23047;95845.51;;;;
2022/05/10 01:43:40;;;;;;;18.9;16.05;;;;;;;9.2;78.23047;95845.51;;;;
2022/05/10 01:44:47;;;;;;;17.6;15.75;;;;;;;9.08;78.42285;95857.15;;;;
2022/05/10 01:45:52;;;;;;;17.6;15.75;;;;;;;9.08;78.42285;95857.15;;;;
2022/05/10 01:46:57;;;;;;;17.6;15.75;;;;;;;9.08;78.42285;95857.15;;;;
2022/05/10 01:48:06;;;;;;;17.6;15.75;;;;;;;9.08;78.42285;95857.15;;;;
2022/05/10 01:49:09;;;;;;;17.6;15.75;;;;;;;9.08;78.42285;95857.15;;;;
2022/05/10 01:50:20;;;;;;;17.6;15.75;;;;;;;9.08;78.42285;95857.15;;;;
2022/05/10 01:51:27;;;;;;;17.6;15.75;;;;;;;9.08;78.42285;95857.15;;;;
2022/05/10 01:52:33;;;;;;;17.6;15.75;;;;;;;9.08;78.42285;95857.15;;;;
2022/05/10 01:53:42;;;;;;;17.6;15.75;;;;;;;9.08;78.42285;95857.15;;;;
2022/05/10 01:54:43;;;;;;;17.6;15.75;;;;;;;9.08;78.42285;95857.15;;;;
2022/05/10 01:58:15;;;;;;;17.55;15.3;;;;;;;8.95;78.67676;95850.47;;;;
2022/05/10 01:59:20;;;;;;;17.55;15.3;;;;;;;8.95;78.67676;95850.47;;;;
2022/05/10 02:00:21;;;;;;;17.55;15.3;;;;;;;8.95;78.67676;95850.47;;;;
2022/05/10 02:01:24;;;;;;;17.55;15.3;;;;;;;8.95;78.67676;95850.47;;;;
2022/05/10 02:02:30;;;;;;;17.55;15.3;;;;;;;8.95;78.67676;95850.47;;;;
2022/05/10 02:03:34;;;;;;;17.55;15.3;;;;;;;8.95;78.67676;95850.47;;;;
2022/05/10 02:04:40;;;;;;;17.55;15.3;;;;;;;8.95;78.67676;95850.47;;;;
2022/05/10 02:05:45;;;;;;;17.55;15.3;;;;;;;8.95;78.67676;95850.47;;;;
2022/05/10 02:06:51;;;;;;;17.2;15.4;;;;;;;8.82;78.87793;95844.12;;;;
2022/05/10 02:07:57;;;;;;;17.2;15.4;;;;;;;8.82;78.87793;95844.12;;;;
2022/05/10 02:09:04;;;;;;;17.2;15.4;;;;;;;8.82;78.87793;95844.12;;;;
2022/05/10 02:10:12;;;;;;;17.2;15.4;;;;;;;8.82;78.87793;95844.12;;;;
2022/05/10 02:11:19;;;;;;;17.2;15.4;;;;;;;8.82;78.87793;95844.12;;;;
2022/05/10 02:12:19;;;;;;;17.2;15.4;;;;;;;8.82;78.87793;95844.12;;;;
2022/05/10 02:13:25;;;;;;;17.2;15.4;;;;;;;8.82;78.87793;95844.12;;;;
2022/05/10 02:14:31;;;;;;;17.2;15.4;;;;;;;8.82;78.87793;95844.12;;;;
2022/05/10 02:15:38;;;;;;;17.2;15.4;;;;;;;8.82;78.87793;95844.12;;;;
2022/05/10 02:16:45;;;;;;;16.3;14.45;;;;;;;8.72;79.04297;95851.92;;;;
2022/05/10 02:17:52;;;;;;;16.3;14.45;;;;;;;8.72;79.04297;95851.92;;;;
2022/05/10 02:18:59;;;;;;;16.3;14.45;;;;;;;8.72;79.04297;95851.92;;;;
2022/05/10 02:20:07;;;;;;;16.3;14.45;;;;;;;8.72;79.04297;95851.92;;;;
2022/05/10 02:21:17;;;;;;;16.3;14.45;;;;;;;8.72;79.04297;95851.92;;;;
2022/05/10 02:22:23;;;;;;;16.3;14.45;;;;;;;8.72;79.04297;95851.92;;;;
2022/05/10 02:23:30;;;;;;;16.3;14.45;;;;;;;8.72;79.04297;95851.92;;;;
2022/05/10 02:24:35;;;;;;;16.3;14.45;;;;;;;8.72;79.04297;95851.92;;;;
2022/05/10 02:25:41;;;;;;;16.3;14.45;;;;;;;8.72;79.04297;95851.92;;;;
2022/05/10 02:26:45;;;;;;;16.3;14.45;;;;;;;8.72;79.04297;95851.92;;;;
2022/05/10 02:27:51;;;;;;;17;14.45;;;;;;;8.61;79.2041;95863.47;;;;
2022/05/10 02:28:55;;;;;;;17;14.45;;;;;;;8.61;79.2041;95863.47;;;;
2022/05/10 02:30:03;;;;;;;17;14.45;;;;;;;8.61;79.2041;95863.47;;;;
2022/05/10 02:31:08;;;;;;;17;14.45;;;;;;;8.61;79.2041;95863.47;;;;
2022/05/10 02:33:18;;;;;;;17;14.45;;;;;;;8.61;79.2041;95863.47;;;;
2022/05/10 02:34:20;;;;;;;17;14.45;;;;;;;8.61;79.2041;95863.47;;;;
2022/05/10 02:35:21;;;;;;;17;14.45;;;;;;;8.61;79.2041;95863.47;;;;
2022/05/10 02:36:21;;;;;;;17;14.45;;;;;;;8.61;79.2041;95863.47;;;;
2022/05/10 02:37:22;;;;;;;17;14.45;;;;;;;8.61;79.2041;95863.47;;;;
2022/05/10 02:38:23;;;;;;;16.65;14.9;;;;;;;8.47;79.37109;95868.17;;;;
2022/05/10 02:39:26;;;;;;;16.65;14.9;;;;;;;8.47;79.37109;95868.17;;;;
2022/05/10 02:40:26;;;;;;;16.65;14.9;;;;;;;8.47;79.37109;95868.17;;;;
2022/05/10 02:41:27;;;;;;;16.65;14.9;;;;;;;8.47;79.37109;95868.17;;;;
2022/05/10 02:42:27;;;;;;;16.65;14.9;;;;;;;8.47;79.37109;95868.17;;;;
2022/05/10 02:43:29;;;;;;;16.65;14.9;;;;;;;8.47;79.37109;95868.17;;;;
2022/05/10 02:44:32;;;;;;;16.65;14.9;;;;;;;8.47;79.37109;95868.17;;;;
2022/05/10 02:45:33;;;;;;;16.65;14.9;;;;;;;8.47;79.37109;95868.17;;;;
2022/05/10 02:46:35;;;;;;;16.65;14.9;;;;;;;8.47;79.37109;95868.17;;;;
2022/05/10 02:47:35;;;;;;;16.65;14.9;;;;;;;8.47;79.37109;95868.17;;;;
2022/05/10 02:48:38;;;;;;;16.65;14.9;;;;;;;8.47;79.37109;95868.17;;;;
2022/05/10 02:49:39;;;;;;;16.75;14.65;;;;;;;8.37;79.53613;95865.42;;;;
2022/05/10 02:50:40;;;;;;;16.75;14.65;;;;;;;8.37;79.53613;95865.42;;;;
2022/05/10 02:51:41;;;;;;;16.75;14.65;;;;;;;8.37;79.53613;95865.42;;;;
2022/05/10 02:52:42;;;;;;;16.75;14.65;;;;;;;8.37;79.53613;95865.42;;;;
2022/05/10 02:53:42;;;;;;;16.75;14.65;;;;;;;8.37;79.53613;95865.42;;;;
2022/05/10 02:54:43;;;;;;;16.75;14.65;;;;;;;8.37;79.53613;95865.42;;;;
2022/05/10 02:55:44;;;;;;;16.75;14.65;;;;;;;8.37;79.53613;95865.42;;;;
2022/05/10 02:56:53;;;;;;;16.75;14.65;;;;;;;8.37;79.53613;95865.42;;;;
2022/05/10 02:57:56;;;;;;;16.75;14.65;;;;;;;8.37;79.53613;95865.42;;;;
2022/05/10 02:59:00;;;;;;;16.75;14.65;;;;;;;8.37;79.53613;95865.42;;;;
2022/05/10 03:00:06;;;;;;;17.75;14.35;;;;;;;8.34;79.58203;95875.5;;;;
2022/05/10 03:01:08;;;;;;;17.75;14.35;;;;;;;8.34;79.58203;95875.5;;;;
2022/05/10 03:02:14;;;;;;;17.75;14.35;;;;;;;8.34;79.58203;95875.5;;;;
2022/05/10 03:03:21;;;;;;;17.75;14.35;;;;;;;8.34;79.58203;95875.5;;;;
2022/05/10 03:04:26;;;;;;;17.75;14.35;;;;;;;8.34;79.58203;95875.5;;;;
2022/05/10 03:05:33;;;;;;;17.75;14.35;;;;;;;8.34;79.58203;95875.5;;;;
2022/05/10 03:06:36;;;;;;;17.75;14.35;;;;;;;8.34;79.58203;95875.5;;;;
2022/05/10 03:07:38;;;;;;;17.75;14.35;;;;;;;8.34;79.58203;95875.5;;;;
2022/05/10 03:08:39;;;;;;;17.75;14.35;;;;;;;8.34;79.58203;95875.5;;;;
2022/05/10 03:09:39;;;;;;;17.75;14.35;;;;;;;8.34;79.58203;95875.5;;;;
2022/05/10 03:10:39;;;;;;;18;14.75;;;;;;;8.3;79.55469;95868.95;;;;
2022/05/10 03:11:40;;;;;;;18;14.75;;;;;;;8.3;79.55469;95868.95;;;;
2022/05/10 03:12:42;;;;;;;18;14.75;;;;;;;8.3;79.55469;95868.95;;;;
2022/05/10 03:13:42;;;;;;;18;14.75;;;;;;;8.3;79.55469;95868.95;;;;
2022/05/10 03:14:43;;;;;;;18;14.75;;;;;;;8.3;79.55469;95868.95;;;;
2022/05/10 03:15:44;;;;;;;18;14.75;;;;;;;8.3;79.55469;95868.95;;;;
2022/05/10 03:16:45;;;;;;;18;14.75;;;;;;;8.3;79.55469;95868.95;;;;
2022/05/10 03:17:45;;;;;;;18;14.75;;;;;;;8.3;79.55469;95868.95;;;;
2022/05/10 03:18:46;;;;;;;18;14.75;;;;;;;8.3;79.55469;95868.95;;;;
2022/05/10 03:19:46;;;;;;;18;14.75;;;;;;;8.3;79.55469;95868.95;;;;
2022/05/10 03:20:47;;;;;;;16.2;14.15;;;;;;;8.22;79.63477;95869.95;;;;
2022/05/10 03:21:47;;;;;;;16.2;14.15;;;;;;;8.22;79.63477;95869.95;;;;
2022/05/10 03:22:48;;;;;;;16.2;14.15;;;;;;;8.22;79.63477;95869.95;;;;
2022/05/10 03:23:48;;;;;;;16.2;14.15;;;;;;;8.22;79.63477;95869.95;;;;
2022/05/10 03:24:49;;;;;;;16.2;14.15;;;;;;;8.22;79.63477;95869.95;;;;
2022/05/10 03:25:50;;;;;;;16.2;14.15;;;;;;;8.22;79.63477;95869.95;;;;
2022/05/10 03:26:50;;;;;;;16.2;14.15;;;;;;;8.22;79.63477;95869.95;;;;
2022/05/10 03:27:52;;;;;;;16.2;14.15;;;;;;;8.22;79.63477;95869.95;;;;
2022/05/10 03:28:53;;;;;;;16.2;14.15;;;;;;;8.22;79.63477;95869.95;;;;
2022/05/10 03:29:54;;;;;;;16.2;14.15;;;;;;;8.22;79.63477;95869.95;;;;
2022/05/10 03:30:55;;;;;;;16.2;14.15;;;;;;;8.22;79.63477;95869.95;;;;
2022/05/10 03:31:55;;;;;;;17.9;14.1;;;;;;;8.08;79.81348;95870.26;;;;
2022/05/10 03:32:57;;;;;;;17.9;14.1;;;;;;;8.08;79.81348;95870.26;;;;
2022/05/10 03:35:02;;;;;;;17.9;14.1;;;;;;;8.08;79.81348;95870.26;;;;
2022/05/10 03:36:03;;;;;;;17.9;14.1;;;;;;;8.08;79.81348;95870.26;;;;
2022/05/10 03:37:04;;;;;;;17.9;14.1;;;;;;;8.08;79.81348;95870.26;;;;
2022/05/10 03:38:05;;;;;;;17.9;14.1;;;;;;;8.08;79.81348;95870.26;;;;
2022/05/10 03:39:06;;;;;;;17.9;14.1;;;;;;;8.08;79.81348;95870.26;;;;
2022/05/10 03:40:07;;;;;;;17.9;14.1;;;;;;;8.08;79.81348;95870.26;;;;
2022/05/10 03:41:09;;;;;;;17.9;14.1;;;;;;;8.08;79.81348;95870.26;;;;
2022/05/10 03:42:09;;;;;;;17.35;14.1;;;;;;;8;80.04395;95870.84;;;;
2022/05/10 03:43:10;;;;;;;17.35;14.1;;;;;;;8;80.04395;95870.84;;;;
2022/05/10 03:44:11;;;;;;;17.35;14.1;;;;;;;8;80.04395;95870.84;;;;
2022/05/10 03:45:12;;;;;;;17.35;14.1;;;;;;;8;80.04395;95870.84;;;;
2022/05/10 03:46:13;;;;;;;17.35;14.1;;;;;;;8;80.04395;95870.84;;;;
2022/05/10 03:47:14;;;;;;;17.35;14.1;;;;;;;8;80.04395;95870.84;;;;
2022/05/10 03:48:15;;;;;;;17.35;14.1;;;;;;;8;80.04395;95870.84;;;;
2022/05/10 03:49:15;;;;;;;17.35;14.1;;;;;;;8;80.04395;95870.84;;;;
2022/05/10 03:50:16;;;;;;;17.35;14.1;;;;;;;8;80.04395;95870.84;;;;
2022/05/10 03:51:19;;;;;;;17.35;14.1;;;;;;;8;80.04395;95870.84;;;;
2022/05/10 03:52:20;;;;;;;17.35;14.1;;;;;;;8;80.04395;95870.84;;;;
2022/05/10 03:53:21;;;;;;;16.85;13.85;;;;;;;7.93;80.16895;95868.64;;;;
2022/05/10 03:54:21;;;;;;;16.85;13.85;;;;;;;7.93;80.16895;95868.64;;;;
2022/05/10 03:55:22;;;;;;;16.85;13.85;;;;;;;7.93;80.16895;95868.64;;;;
2022/05/10 03:56:25;;;;;;;16.85;13.85;;;;;;;7.93;80.16895;95868.64;;;;
2022/05/10 03:57:26;;;;;;;16.85;13.85;;;;;;;7.93;80.16895;95868.64;;;;
2022/05/10 03:58:27;;;;;;;16.85;13.85;;;;;;;7.93;80.16895;95868.64;;;;
2022/05/10 03:59:27;;;;;;;16.85;13.85;;;;;;;7.93;80.16895;95868.64;;;;
2022/05/10 04:00:27;;;;;;;16.85;13.85;;;;;;;7.93;80.16895;95868.64;;;;
2022/05/10 04:01:28;;;;;;;16.85;13.85;;;;;;;7.93;80.16895;95868.64;;;;
2022/05/10 04:02:29;;;;;;;16.85;13.85;;;;;;;7.93;80.16895;95868.64;;;;
2022/05/10 04:03:29;;;;;;;16.25;13.95;;;;;;;7.88;80.2666;95870.06;;;;
2022/05/10 04:04:30;;;;;;;16.25;13.95;;;;;;;7.88;80.2666;95870.06;;;;
2022/05/10 04:05:30;;;;;;;16.25;13.95;;;;;;;7.88;80.2666;95870.06;;;;
2022/05/10 04:06:31;;;;;;;16.25;13.95;;;;;;;7.88;80.2666;95870.06;;;;
2022/05/10 04:07:31;;;;;;;16.25;13.95;;;;;;;7.88;80.2666;95870.06;;;;
2022/05/10 04:08:32;;;;;;;16.25;13.95;;;;;;;7.88;80.2666;95870.06;;;;
2022/05/10 04:09:32;;;;;;;16.25;13.95;;;;;;;7.88;80.2666;95870.06;;;;
2022/05/10 04:10:34;;;;;;;16.25;13.95;;;;;;;7.88;80.2666;95870.06;;;;
2022/05/10 04:11:34;;;;;;;16.25;13.95;;;;;;;7.88;80.2666;95870.06;;;;
2022/05/10 04:12:35;;;;;;;16.25;13.95;;;;;;;7.88;80.2666;95870.06;;;;
2022/05/10 04:13:36;;;;;;;16.25;13.95;;;;;;;7.88;80.2666;95870.06;;;;
2022/05/10 04:14:38;;;;;;;15.25;13.6;;;;;;;7.96;80.28223;95869.07;;;;
2022/05/10 04:15:38;;;;;;;15.25;13.6;;;;;;;7.96;80.28223;95869.07;;;;
2022/05/10 04:16:39;;;;;;;15.25;13.6;;;;;;;7.96;80.28223;95869.07;;;;
2022/05/10 04:17:39;;;;;;;15.25;13.6;;;;;;;7.96;80.28223;95869.07;;;;
2022/05/10 04:18:40;;;;;;;15.25;13.6;;;;;;;7.96;80.28223;95869.07;;;;
2022/05/10 04:19:40;;;;;;;15.25;13.6;;;;;;;7.96;80.28223;95869.07;;;;
2022/05/10 04:20:41;;;;;;;15.25;13.6;;;;;;;7.96;80.28223;95869.07;;;;
2022/05/10 04:21:41;;;;;;;15.25;13.6;;;;;;;7.96;80.28223;95869.07;;;;
2022/05/10 04:22:42;;;;;;;15.25;13.6;;;;;;;7.96;80.28223;95869.07;;;;
2022/05/10 04:23:42;;;;;;;15.25;13.6;;;;;;;7.96;80.28223;95869.07;;;;
2022/05/10 04:24:43;;;;;;;15.5;12.9;;;;;;;8.07;80.21777;95864.69;;;;
2022/05/10 04:25:43;;;;;;;15.5;12.9;;;;;;;8.07;80.21777;95864.69;;;;
2022/05/10 04:26:44;;;;;;;15.5;12.9;;;;;;;8.07;80.21777;95864.69;;;;
2022/05/10 04:27:45;;;;;;;15.5;12.9;;;;;;;8.07;80.21777;95864.69;;;;
2022/05/10 04:28:45;;;;;;;15.5;12.9;;;;;;;8.07;80.21777;95864.69;;;;
2022/05/10 04:29:46;;;;;;;15.5;12.9;;;;;;;8.07;80.21777;95864.69;;;;
2022/05/10 04:30:47;;;;;;;15.5;12.9;;;;;;;8.07;80.21777;95864.69;;;;
2022/05/10 04:31:47;;;;;;;15.5;12.9;;;;;;;8.07;80.21777;95864.69;;;;
2022/05/10 04:32:49;;;;;;;15.5;12.9;;;;;;;8.07;80.21777;95864.69;;;;
2022/05/10 04:33:49;;;;;;;15.5;12.9;;;;;;;8.07;80.21777;95864.69;;;;
2022/05/10 04:34:50;;;;;;;15.5;12.9;;;;;;;8.07;80.21777;95864.69;;;;
2022/05/10 04:35:50;;;;;;;14.3;12.35;;;;;;;8.28;80.24512;95867.44;;;;
2022/05/10 04:36:51;;;;;;;14.3;12.35;;;;;;;8.28;80.24512;95867.44;;;;
2022/05/10 04:37:51;;;;;;;14.3;12.35;;;;;;;8.28;80.24512;95867.44;;;;
2022/05/10 04:38:52;;;;;;;14.3;12.35;;;;;;;8.28;80.24512;95867.44;;;;
2022/05/10 04:45:09;;;;;;;14.3;12.35;;;;;;;8.28;80.24512;95867.44;;;;
2022/05/10 04:46:10;;;;;;;16.7;13.5;;;;;;;8.54;80.29199;95876.15;;;;
2022/05/10 04:47:10;;;;;;;16.7;13.5;;;;;;;8.54;80.29199;95876.15;;;;
2022/05/10 04:48:11;;;;;;;16.7;13.5;;;;;;;8.54;80.29199;95876.15;;;;
2022/05/10 04:49:11;;;;;;;16.7;13.5;;;;;;;8.54;80.29199;95876.15;;;;
2022/05/10 04:50:13;;;;;;;16.7;13.5;;;;;;;8.54;80.29199;95876.15;;;;
2022/05/10 04:51:14;;;;;;;16.7;13.5;;;;;;;8.54;80.29199;95876.15;;;;
2022/05/10 04:52:14;;;;;;;16.7;13.5;;;;;;;8.54;80.29199;95876.15;;;;
2022/05/10 04:53:15;;;;;;;16.7;13.5;;;;;;;8.54;80.29199;95876.15;;;;
2022/05/10 04:54:15;;;;;;;16.7;13.5;;;;;;;8.54;80.29199;95876.15;;;;
2022/05/10 04:55:16;;;;;;;16.7;13.5;;;;;;;8.54;80.29199;95876.15;;;;
2022/05/10 04:56:16;;;;;;;16.7;13.5;;;;;;;8.54;80.29199;95876.15;;;;
2022/05/10 04:57:17;;;;;;;15.4;12.4;;;;;;;8.87;80.41992;95870.25;;;;
2022/05/10 04:58:18;;;;;;;15.4;12.4;;;;;;;8.87;80.41992;95870.25;;;;
2022/05/10 04:59:18;;;;;;;15.4;12.4;;;;;;;8.87;80.41992;95870.25;;;;
2022/05/10 05:00:19;;;;;;;15.4;12.4;;;;;;;8.87;80.41992;95870.25;;;;
2022/05/10 05:01:22;;;;;;;15.4;12.4;;;;;;;8.87;80.41992;95870.25;;;;
2022/05/10 05:02:24;;;;;;;15.4;12.4;;;;;;;8.87;80.41992;95870.25;;;;
2022/05/10 05:03:25;;;;;;;15.4;12.4;;;;;;;8.87;80.41992;95870.25;;;;
2022/05/10 05:04:25;;;;;;;15.4;12.4;;;;;;;8.87;80.41992;95870.25;;;;
2022/05/10 05:05:26;;;;;;;15.4;12.4;;;;;;;8.87;80.41992;95870.25;;;;
2022/05/10 05:06:26;;;;;;;15.4;12.4;;;;;;;8.87;80.41992;95870.25;;;;
2022/05/10 05:07:27;;;;;;;14.1;12.6;;;;;;;9.32;80.51172;95869.46;;;;
2022/05/10 05:08:28;;;;;;;14.1;12.6;;;;;;;9.32;80.51172;95869.46;;;;
2022/05/10 05:09:29;;;;;;;14.1;12.6;;;;;;;9.32;80.51172;95869.46;;;;
2022/05/10 05:10:29;;;;;;;14.1;12.6;;;;;;;9.32;80.51172;95869.46;;;;
2022/05/10 05:11:30;;;;;;;14.1;12.6;;;;;;;9.32;80.51172;95869.46;;;;
2022/05/10 05:12:32;;;;;;;14.1;12.6;;;;;;;9.32;80.51172;95869.46;;;;
2022/05/10 05:13:34;;;;;;;14.1;12.6;;;;;;;9.32;80.51172;95869.46;;;;
2022/05/10 05:14:35;;;;;;;14.1;12.6;;;;;;;9.32;80.51172;95869.46;;;;
2022/05/10 05:15:35;;;;;;;14.1;12.6;;;;;;;9.32;80.51172;95869.46;;;;
2022/05/10 05:16:36;;;;;;;14.1;12.6;;;;;;;9.32;80.51172;95869.46;;;;
2022/05/10 05:17:36;;;;;;;14.1;12.6;;;;;;;9.32;80.51172;95869.46;;;;
2022/05/10 05:18:37;;;;;;;12.9;11.6;;;;;;;9.92;80.4082;95871.55;;;;
2022/05/10 05:19:38;;;;;;;12.9;11.6;;;;;;;9.92;80.4082;95871.55;;;;
2022/05/10 05:20:38;;;;;;;12.9;11.6;;;;;;;9.92;80.4082;95871.55;;;;
2022/05/10 05:21:40;;;;;;;12.9;11.6;;;;;;;9.92;80.4082;95871.55;;;;
2022/05/10 05:22:41;;;;;;;12.9;11.6;;;;;;;9.92;80.4082;95871.55;;;;
2022/05/10 05:23:41;;;;;;;12.9;11.6;;;;;;;9.92;80.4082;95871.55;;;;
2022/05/10 05:24:42;;;;;;;12.9;11.6;;;;;;;9.92;80.4082;95871.55;;;;
2022/05/10 05:25:42;;;;;;;12.9;11.6;;;;;;;9.92;80.4082;95871.55;;;;
2022/05/10 05:26:43;;;;;;;12.9;11.6;;;;;;;9.92;80.4082;95871.55;;;;
2022/05/10 05:27:43;;;;;;;12.9;11.6;;;;;;;9.92;80.4082;95871.55;;;;
2022/05/10 05:28:44;;;;;;;12.9;11.6;;;;;;;9.92;80.4082;95871.55;;;;
2022/05/10 05:29:44;;;;;;;11.1;10;;;;;;;10.53;80.28418;95872.96;;;;
2022/05/10 05:30:45;;;;;;;11.1;10;;;;;;;10.53;80.28418;95872.96;;;;
2022/05/10 05:31:45;;;;;;;11.1;10;;;;;;;10.53;80.28418;95872.96;;;;
2022/05/10 05:32:48;;;;;;;11.1;10;;;;;;;10.53;80.28418;95872.96;;;;
2022/05/10 05:33:49;;;;;;;11.1;10;;;;;;;10.53;80.28418;95872.96;;;;
2022/05/10 05:34:50;;;;;;;11.1;10;;;;;;;10.53;80.28418;95872.96;;;;
2022/05/10 05:35:50;;;;;;;11.1;10;;;;;;;10.53;80.28418;95872.96;;;;
2022/05/10 05:37:32;;;;;;;11.1;10;;;;;;;10.53;80.28418;95872.96;;;;
2022/05/10 05:38:33;;;;;;;11.1;10;;;;;;;10.53;80.28418;95872.96;;;;
2022/05/10 05:39:33;;;;;;;9.849999;8.899999;;;;;;;11.1;80.22656;95878.23;;;;
2022/05/10 05:40:34;;;;;;;9.849999;8.899999;;;;;;;11.1;80.22656;95878.23;;;;
2022/05/10 05:41:36;;;;;;;9.849999;8.899999;;;;;;;11.1;80.22656;95878.23;;;;
2022/05/10 05:42:37;;;;;;;9.849999;8.899999;;;;;;;11.1;80.22656;95878.23;;;;
2022/05/10 05:43:37;;;;;;;9.849999;8.899999;;;;;;;11.1;80.22656;95878.23;;;;
2022/05/10 05:44:38;;;;;;;9.849999;8.899999;;;;;;;11.1;80.22656;95878.23;;;;
2022/05/10 05:45:38;;;;;;;9.849999;8.899999;;;;;;;11.1;80.22656;95878.23;;;;
2022/05/10 05:46:39;;;;;;;9.849999;8.899999;;;;;;;11.1;80.22656;95878.23;;;;
2022/05/10 05:47:40;;;;;;;9.849999;8.899999;;;;;;;11.1;80.22656;95878.23;;;;
2022/05/10 05:48:41;;;;;;;9.849999;8.899999;;;;;;;11.1;80.22656;95878.23;;;;
2022/05/10 05:49:41;;;;;;;9.849999;8.899999;;;;;;;11.1;80.22656;95878.23;;;;
2022/05/10 05:50:42;;;;;;;9.200001;8.299999;;;;;;;11.69;80.06738;95876.48;;;;
2022/05/10 05:51:44;;;;;;;9.200001;8.299999;;;;;;;11.69;80.06738;95876.48;;;;
2022/05/10 05:52:44;;;;;;;9.200001;8.299999;;;;;;;11.69;80.06738;95876.48;;;;
2022/05/10 05:53:46;;;;;;;9.200001;8.299999;;;;;;;11.69;80.06738;95876.48;;;;
2022/05/10 05:54:46;;;;;;;9.200001;8.299999;;;;;;;11.69;80.06738;95876.48;;;;
2022/05/10 05:55:48;;;;;;;9.200001;8.299999;;;;;;;11.69;80.06738;95876.48;;;;
2022/05/10 05:56:49;;;;;;;9.200001;8.299999;;;;;;;11.69;80.06738;95876.48;;;;
2022/05/10 05:57:49;;;;;;;9.200001;8.299999;;;;;;;11.69;80.06738;95876.48;;;;
2022/05/10 05:58:50;;;;;;;9.200001;8.299999;;;;;;;11.69;80.06738;95876.48;;;;
2022/05/10 05:59:50;;;;;;;9.200001;8.299999;;;;;;;11.69;80.06738;95876.48;;;;
2022/05/10 06:00:53;;;;;;;8.450002;7.649999;;;;;;;12.33;79.7627;95873.95;;;;
2022/05/10 06:01:54;;;;;;;8.450002;7.649999;;;;;;;12.33;79.7627;95873.95;;;;
2022/05/10 06:02:55;;;;;;;8.450002;7.649999;;;;;;;12.33;79.7627;95873.95;;;;
2022/05/10 06:03:58;;;;;;;8.450002;7.649999;;;;;;;12.33;79.7627;95873.95;;;;
2022/05/10 06:04:58;;;;;;;8.450002;7.649999;;;;;;;12.33;79.7627;95873.95;;;;
2022/05/10 06:05:59;;;;;;;8.450002;7.649999;;;;;;;12.33;79.7627;95873.95;;;;